createdAt,value
2023-03-18T00:00:32.666Z,12.55
2023-03-18T00:03:00.242Z,12.53
2023-03-18T00:05:27.328Z,12.55
2023-03-18T00:07:54.307Z,12.55
2023-03-18T00:10:21.315Z,12.57
2023-03-18T00:12:48.320Z,12.57
2023-03-18T00:15:18.091Z,12.58
2023-03-18T00:17:46.825Z,12.58
2023-03-18T00:20:16.906Z,12.54
2023-03-18T00:22:45.223Z,12.52
2023-03-18T00:25:15.319Z,12.50
2023-03-18T00:27:42.599Z,12.43
2023-03-18T00:30:12.377Z,12.40
2023-03-18T00:32:39.588Z,12.39
2023-03-18T00:35:07.259Z,12.34
2023-03-18T00:37:36.449Z,12.30
2023-03-18T00:40:10.517Z,12.28
2023-03-18T00:42:42.570Z,12.27
2023-03-18T00:45:11.808Z,12.23
2023-03-18T00:47:38.862Z,12.20
2023-03-18T00:50:08.371Z,12.17
2023-03-18T00:52:36.144Z,12.13
2023-03-18T00:55:03.567Z,12.08
2023-03-18T00:57:31.126Z,12.08
2023-03-18T00:59:59.229Z,12.05
2023-03-18T01:02:28.907Z,12.03
2023-03-18T01:04:57.055Z,12.00
2023-03-18T01:07:24.927Z,12.00
2023-03-18T01:09:52.117Z,11.97
2023-03-18T01:12:19.236Z,11.97
2023-03-18T01:14:46.863Z,11.96
2023-03-18T01:17:14.461Z,11.96
2023-03-18T01:19:42.369Z,11.94
2023-03-18T01:22:09.489Z,11.93
2023-03-18T01:24:42.649Z,11.91
2023-03-18T01:27:10.687Z,11.89
2023-03-18T01:29:39.528Z,11.87
2023-03-18T01:32:13.124Z,11.84
2023-03-18T01:34:41.398Z,11.84
2023-03-18T01:37:08.499Z,11.85
2023-03-18T01:39:38.053Z,11.84
2023-03-18T01:42:08.709Z,11.83
2023-03-18T01:44:36.010Z,11.83
2023-03-18T01:47:03.386Z,11.83
2023-03-18T01:49:39.321Z,11.84
2023-03-18T01:52:25.213Z,11.82
2023-03-18T01:55:05.806Z,11.81
2023-03-18T01:57:33.998Z,11.79
2023-03-18T02:00:01.959Z,11.77
2023-03-18T02:02:30.664Z,11.78
2023-03-18T02:05:05.986Z,11.76
2023-03-18T02:07:35.850Z,11.74
2023-03-18T02:10:14.435Z,11.71
2023-03-18T02:12:46.825Z,11.71
2023-03-18T02:15:24.109Z,11.68
2023-03-18T02:18:13.339Z,11.63
2023-03-18T02:21:04.184Z,11.57
2023-03-18T02:24:13.797Z,11.52
2023-03-18T02:27:15.905Z,11.44
2023-03-18T02:29:43.961Z,11.41
2023-03-18T02:32:17.986Z,11.39
2023-03-18T02:34:45.818Z,11.33
2023-03-18T02:37:13.147Z,11.29
2023-03-18T02:39:42.174Z,11.24
2023-03-18T02:42:16.818Z,11.21
2023-03-18T02:44:50.008Z,11.24
2023-03-18T02:47:38.676Z,11.24
2023-03-18T02:50:06.070Z,11.23
2023-03-18T02:52:33.649Z,11.25
2023-03-18T02:55:01.655Z,11.25
2023-03-18T02:57:29.676Z,11.25
2023-03-18T02:59:57.661Z,11.27
2023-03-18T03:02:24.823Z,11.27
2023-03-18T03:04:51.858Z,11.28
2023-03-18T03:07:20.125Z,11.29
2023-03-18T03:09:51.520Z,11.29
2023-03-18T03:12:19.866Z,11.26
2023-03-18T03:14:51.936Z,11.24
2023-03-18T03:17:19.832Z,11.23
2023-03-18T03:19:46.825Z,11.22
2023-03-18T03:22:17.270Z,11.23
2023-03-18T03:24:45.168Z,11.24
2023-03-18T03:27:14.250Z,11.27
2023-03-18T03:29:41.211Z,11.28
2023-03-18T03:32:08.298Z,11.30
2023-03-18T03:34:35.390Z,11.31
2023-03-18T03:37:02.522Z,11.32
2023-03-18T03:39:29.631Z,11.35
2023-03-18T03:41:56.837Z,11.35
2023-03-18T03:44:24.317Z,11.35
2023-03-18T03:46:51.515Z,11.35
2023-03-18T03:49:18.620Z,11.33
2023-03-18T03:51:45.580Z,11.34
2023-03-18T03:54:13.215Z,11.33
2023-03-18T03:56:40.912Z,11.34
2023-03-18T03:59:08.213Z,11.34
2023-03-18T04:01:55.120Z,11.35
2023-03-18T04:04:22.539Z,11.37
2023-03-18T04:06:49.596Z,11.37
2023-03-18T04:09:17.184Z,11.39
2023-03-18T04:11:45.510Z,11.40
2023-03-18T04:14:12.831Z,11.41
2023-03-18T04:16:40.490Z,11.43
2023-03-18T04:19:09.991Z,11.44
2023-03-18T04:21:37.167Z,11.47
2023-03-18T04:24:04.757Z,11.48
2023-03-18T04:26:32.862Z,11.50
2023-03-18T04:29:03.592Z,11.50
2023-03-18T04:31:31.862Z,11.54
2023-03-18T04:33:59.920Z,11.54
2023-03-18T04:36:28.318Z,11.55
2023-03-18T04:38:56.923Z,11.57
2023-03-18T04:41:24.576Z,11.59
2023-03-18T04:43:52.663Z,11.60
2023-03-18T04:46:20.938Z,11.60
2023-03-18T04:48:48.996Z,11.61
2023-03-18T04:51:15.947Z,11.61
2023-03-18T04:53:43.630Z,11.61
2023-03-18T04:56:11.603Z,11.61
2023-03-18T04:58:46.486Z,11.62
2023-03-18T05:01:18.932Z,11.63
2023-03-18T05:03:46.252Z,11.64
2023-03-18T05:06:29.927Z,11.64
2023-03-18T05:09:16.061Z,11.65
2023-03-18T05:11:44.910Z,11.67
2023-03-18T05:14:20.303Z,11.67
2023-03-18T05:16:49.201Z,11.67
2023-03-18T05:19:17.246Z,11.67
2023-03-18T05:21:55.378Z,11.68
2023-03-18T05:24:22.773Z,11.68
2023-03-18T05:26:50.485Z,11.67
2023-03-18T05:29:21.084Z,11.67
2023-03-18T05:32:10.125Z,11.67
2023-03-18T05:34:39.605Z,11.67
2023-03-18T05:37:11.082Z,11.67
2023-03-18T05:39:44.726Z,11.67
2023-03-18T05:42:14.310Z,11.67
2023-03-18T05:44:42.592Z,11.65
2023-03-18T05:47:11.364Z,11.65
2023-03-18T05:49:58.610Z,11.61
2023-03-18T05:52:26.970Z,11.59
2023-03-18T05:54:56.725Z,11.56
2023-03-18T05:57:28.532Z,11.53
2023-03-18T06:00:00.731Z,11.49
2023-03-18T06:02:30.377Z,11.48
2023-03-18T06:04:58.334Z,11.45
2023-03-18T06:07:25.292Z,11.44
2023-03-18T06:09:53.457Z,11.41
2023-03-18T06:12:22.963Z,11.38
2023-03-18T06:14:50.572Z,11.36
2023-03-18T06:17:17.722Z,11.37
2023-03-18T06:19:45.755Z,11.37
2023-03-18T06:22:12.964Z,11.36
2023-03-18T06:24:39.923Z,11.37
2023-03-18T06:27:07.508Z,11.37
2023-03-18T06:29:36.804Z,11.39
2023-03-18T06:32:10.373Z,11.40
2023-03-18T06:34:38.896Z,11.41
2023-03-18T06:37:06.666Z,11.45
2023-03-18T06:39:35.464Z,11.45
2023-03-18T06:42:05.663Z,11.49
2023-03-18T06:44:37.329Z,11.53
2023-03-18T06:47:18.932Z,11.54
2023-03-18T06:49:52.741Z,11.57
2023-03-18T06:52:27.521Z,11.60
2023-03-18T06:54:58.910Z,11.62
2023-03-18T06:57:26.958Z,11.65
2023-03-18T06:59:53.884Z,11.69
2023-03-18T07:02:23.452Z,11.69
2023-03-18T07:04:51.401Z,11.70
2023-03-18T07:07:19.193Z,11.72
2023-03-18T07:09:46.200Z,11.76
2023-03-18T07:12:14.408Z,11.78
2023-03-18T07:14:42.562Z,11.81
2023-03-18T07:17:12.671Z,11.87
2023-03-18T07:19:41.798Z,11.92
2023-03-18T07:22:09.030Z,11.97
2023-03-18T07:24:36.007Z,12.03
2023-03-18T07:27:04.485Z,12.09
2023-03-18T07:29:33.620Z,12.13
2023-03-18T07:32:01.693Z,12.19
2023-03-18T07:34:28.801Z,12.24
2023-03-18T07:36:56.338Z,12.30
2023-03-18T07:39:23.411Z,12.34
2023-03-18T07:41:51.563Z,12.39
2023-03-18T07:44:22.164Z,12.42
2023-03-18T07:46:49.234Z,12.47
2023-03-18T07:49:16.199Z,12.52
2023-03-18T07:51:43.405Z,12.57
2023-03-18T07:54:10.948Z,12.62
2023-03-18T07:56:37.917Z,12.65
2023-03-18T07:59:04.884Z,12.70
2023-03-18T08:01:32.984Z,12.76
2023-03-18T08:04:00.333Z,12.81
2023-03-18T08:06:27.359Z,12.90
2023-03-18T08:08:54.278Z,12.98
2023-03-18T08:11:21.208Z,13.04
2023-03-18T08:13:48.165Z,13.15
2023-03-18T08:16:16.435Z,13.20
2023-03-18T08:18:43.377Z,13.29
2023-03-18T08:21:10.638Z,13.38
2023-03-18T08:23:38.543Z,13.46
2023-03-18T08:26:05.590Z,13.53
2023-03-18T08:28:32.541Z,13.61
2023-03-18T08:30:59.825Z,13.68
2023-03-18T08:33:28.195Z,13.76
2023-03-18T08:35:57.181Z,13.79
2023-03-18T08:38:25.177Z,13.86
2023-03-18T08:40:52.233Z,13.90
2023-03-18T08:43:28.559Z,13.95
2023-03-18T08:45:59.876Z,14.00
2023-03-18T08:48:29.177Z,14.05
2023-03-18T08:50:56.414Z,14.15
2023-03-18T08:53:23.829Z,14.21
2023-03-18T08:56:01.333Z,14.26
2023-03-18T08:58:37.097Z,14.34
2023-03-18T09:01:11.935Z,14.42
2023-03-18T09:03:42.275Z,14.49
2023-03-18T09:06:13.091Z,14.56
2023-03-18T09:08:45.059Z,14.61
2023-03-18T09:11:15.124Z,14.68
2023-03-18T09:13:44.806Z,14.75
2023-03-18T09:16:14.933Z,14.81
2023-03-18T09:18:48.694Z,14.86
2023-03-18T09:21:20.738Z,14.95
2023-03-18T09:23:52.433Z,15.01
2023-03-18T09:26:20.768Z,15.05
2023-03-18T09:28:47.806Z,15.12
2023-03-18T09:31:15.482Z,15.19
2023-03-18T09:33:43.378Z,15.25
2023-03-18T09:36:10.751Z,15.33
2023-03-18T09:38:37.760Z,15.44
2023-03-18T09:41:38.584Z,15.57
2023-03-18T09:44:24.305Z,15.65
2023-03-18T09:47:22.251Z,15.72
2023-03-18T09:50:24.146Z,15.76
2023-03-18T09:53:04.070Z,15.86
2023-03-18T09:55:48.998Z,15.97
2023-03-18T09:58:33.940Z,16.08
2023-03-18T10:01:10.881Z,16.20
2023-03-18T10:04:21.388Z,16.32
2023-03-18T10:06:54.773Z,16.39
2023-03-18T10:09:31.769Z,16.45
2023-03-18T10:12:33.695Z,16.53
2023-03-18T10:15:30.490Z,16.62
2023-03-18T10:18:12.652Z,16.71
2023-03-18T10:20:57.194Z,16.82
2023-03-18T10:23:53.881Z,16.89
2023-03-18T10:26:46.033Z,16.93
2023-03-18T10:29:40.683Z,16.94
2023-03-18T10:32:50.595Z,16.96
2023-03-18T10:35:36.628Z,16.97
2023-03-18T10:38:24.078Z,16.98
2023-03-18T10:40:52.762Z,17.05
2023-03-18T10:43:25.105Z,17.13
2023-03-18T10:46:04.748Z,17.25
2023-03-18T10:48:50.121Z,17.32
2023-03-18T10:51:33.132Z,17.43
2023-03-18T10:54:22.674Z,17.53
2023-03-18T10:56:49.701Z,17.57
2023-03-18T10:59:20.415Z,17.61
2023-03-18T11:01:57.993Z,17.70
2023-03-18T11:04:28.383Z,17.73
2023-03-18T11:07:00.553Z,17.81
2023-03-18T11:09:39.375Z,17.88
2023-03-18T11:12:18.996Z,17.84
2023-03-18T11:14:50.679Z,17.65
2023-03-18T11:17:35.219Z,17.82
2023-03-18T11:20:24.232Z,17.91
2023-03-18T11:22:55.287Z,17.98
2023-03-18T11:25:30.799Z,18.13
2023-03-18T11:28:03.692Z,18.27
2023-03-18T11:30:46.086Z,18.41
2023-03-18T11:33:20.215Z,18.57
2023-03-18T11:36:09.614Z,18.76
2023-03-18T11:38:37.787Z,18.91
2023-03-18T11:41:16.908Z,19.06
2023-03-18T11:44:16.109Z,19.22
2023-03-18T11:47:01.201Z,19.42
2023-03-18T11:49:29.578Z,19.50
2023-03-18T11:52:28.134Z,19.71
2023-03-18T11:55:24.392Z,19.63
2023-03-18T11:58:18.198Z,19.71
2023-03-18T12:01:17.636Z,19.55
2023-03-18T12:04:27.024Z,19.76
2023-03-18T12:07:15.353Z,19.90
2023-03-18T12:10:25.925Z,19.97
2023-03-18T12:13:30.360Z,20.12
2023-03-18T12:16:33.371Z,20.02
2023-03-18T12:19:28.676Z,20.27
2023-03-18T12:22:24.773Z,20.42
2023-03-18T12:25:30.405Z,20.53
2023-03-18T12:28:21.945Z,20.57
2023-03-18T12:31:06.510Z,20.70
2023-03-18T12:33:57.438Z,20.67
2023-03-18T12:36:44.465Z,20.78
2023-03-18T12:40:21.290Z,20.87
2023-03-18T12:43:38.106Z,20.86
2023-03-18T12:46:18.853Z,20.89
2023-03-18T12:49:13.068Z,20.85
2023-03-18T12:52:11.828Z,20.78
2023-03-18T12:54:50.970Z,20.77
2023-03-18T12:57:45.283Z,20.70
2023-03-18T13:00:31.660Z,20.66
2023-03-18T13:03:06.866Z,20.61
2023-03-18T13:05:52.318Z,20.62
2023-03-18T13:08:45.690Z,20.62
2023-03-18T13:11:50.659Z,20.66
2023-03-18T13:14:39.259Z,20.84
2023-03-18T13:17:20.535Z,21.07
2023-03-18T13:19:47.762Z,21.28
2023-03-18T13:22:48.514Z,21.53
2023-03-18T13:25:59.502Z,21.65
2023-03-18T13:28:49.095Z,21.70
2023-03-18T13:31:33.003Z,21.75
2023-03-18T13:34:37.160Z,21.80
2023-03-18T13:37:27.745Z,21.87
2023-03-18T13:40:21.609Z,21.94
2023-03-18T13:42:50.571Z,22.01
2023-03-18T13:45:37.648Z,22.15
2023-03-18T13:48:16.341Z,22.26
2023-03-18T13:50:50.358Z,22.25
2023-03-18T13:53:34.445Z,22.09
2023-03-18T13:56:06.544Z,21.91
2023-03-18T13:59:06.860Z,21.88
2023-03-18T14:01:47.612Z,21.84
2023-03-18T14:04:31.314Z,21.87
2023-03-18T14:07:17.728Z,22.12
2023-03-18T14:10:18.462Z,22.32
2023-03-18T14:12:47.586Z,22.50
2023-03-18T14:15:15.637Z,22.76
2023-03-18T14:17:55.514Z,23.01
2023-03-18T14:20:39.307Z,23.24
2023-03-18T14:23:24.274Z,23.45
2023-03-18T14:26:08.548Z,23.55
2023-03-18T14:28:47.088Z,23.51
2023-03-18T14:31:29.965Z,23.55
2023-03-18T14:34:22.674Z,23.47
2023-03-18T14:36:52.510Z,23.37
2023-03-18T14:39:32.572Z,23.35
2023-03-18T14:42:13.623Z,23.09
2023-03-18T14:44:47.470Z,22.80
2023-03-18T14:47:38.529Z,22.67
2023-03-18T14:50:32.725Z,22.53
2023-03-18T14:53:12.319Z,22.27
2023-03-18T14:55:40.251Z,22.11
2023-03-18T14:58:16.965Z,21.96
2023-03-18T15:00:45.594Z,21.85
2023-03-18T15:03:24.853Z,21.75
2023-03-18T15:05:58.328Z,21.66
2023-03-18T15:08:46.733Z,21.58
2023-03-18T15:11:16.378Z,21.51
2023-03-18T15:13:44.897Z,21.43
2023-03-18T15:16:18.492Z,21.40
2023-03-18T15:18:46.201Z,21.36
2023-03-18T15:21:46.954Z,21.34
2023-03-18T15:24:23.016Z,21.27
2023-03-18T15:27:05.560Z,21.21
2023-03-18T15:29:43.640Z,21.11
2023-03-18T15:32:29.809Z,21.03
2023-03-18T15:35:10.700Z,20.95
2023-03-18T15:37:43.785Z,20.81
2023-03-18T15:40:37.888Z,20.75
2023-03-18T15:43:10.824Z,20.61
2023-03-18T15:45:46.996Z,20.52
2023-03-18T15:48:40.283Z,20.45
2023-03-18T15:51:23.027Z,20.38
2023-03-18T15:53:55.309Z,20.31
2023-03-18T15:56:30.231Z,20.21
2023-03-18T15:59:23.245Z,20.18
2023-03-18T16:01:50.258Z,20.17
2023-03-18T16:04:18.212Z,20.13
2023-03-18T16:06:45.202Z,20.10
2023-03-18T16:09:18.848Z,20.11
2023-03-18T16:12:00.545Z,20.10
2023-03-18T16:14:43.084Z,20.13
2023-03-18T16:17:21.700Z,20.15
2023-03-18T16:19:53.733Z,20.17
2023-03-18T16:22:21.978Z,20.19
2023-03-18T16:24:49.682Z,20.19
2023-03-18T16:27:40.779Z,20.17
2023-03-18T16:30:24.585Z,20.15
2023-03-18T16:32:52.755Z,20.05
2023-03-18T16:35:24.534Z,19.97
2023-03-18T16:37:53.029Z,19.91
2023-03-18T16:40:23.803Z,19.83
2023-03-18T16:42:52.569Z,19.76
2023-03-18T16:45:33.130Z,19.67
2023-03-18T16:48:07.210Z,19.58
2023-03-18T16:50:37.450Z,19.50
2023-03-18T16:53:27.154Z,19.42
2023-03-18T16:56:03.455Z,19.32
2023-03-18T16:58:36.447Z,19.21
2023-03-18T17:01:07.110Z,19.11
2023-03-18T17:03:35.878Z,19.00
2023-03-18T17:06:02.982Z,18.91
2023-03-18T17:08:29.949Z,18.84
2023-03-18T17:10:59.611Z,18.74
2023-03-18T17:13:32.652Z,18.68
2023-03-18T17:15:59.597Z,18.61
2023-03-18T17:18:27.685Z,18.52
2023-03-18T17:20:54.662Z,18.37
2023-03-18T17:23:26.698Z,18.26
2023-03-18T17:25:59.633Z,18.12
2023-03-18T17:28:43.556Z,18.01
2023-03-18T17:31:12.336Z,17.89
2023-03-18T17:33:40.312Z,17.76
2023-03-18T17:36:08.455Z,17.62
2023-03-18T17:38:36.319Z,17.50
2023-03-18T17:41:12.477Z,17.40
2023-03-18T17:43:40.125Z,17.31
2023-03-18T17:46:07.224Z,17.25
2023-03-18T17:48:37.109Z,17.16
2023-03-18T17:51:16.133Z,17.09
2023-03-18T17:53:56.496Z,17.02
2023-03-18T17:56:24.439Z,16.93
2023-03-18T17:58:52.334Z,16.77
2023-03-18T18:01:29.143Z,16.68
2023-03-18T18:03:58.866Z,16.57
2023-03-18T18:06:31.087Z,16.47
2023-03-18T18:09:01.170Z,16.39
2023-03-18T18:11:35.721Z,16.29
2023-03-18T18:14:14.775Z,16.25
2023-03-18T18:16:41.742Z,16.20
2023-03-18T18:19:11.207Z,16.15
2023-03-18T18:21:38.430Z,16.08
2023-03-18T18:24:24.373Z,16.04
2023-03-18T18:26:51.634Z,15.97
2023-03-18T18:29:24.708Z,15.91
2023-03-18T18:31:52.844Z,15.89
2023-03-18T18:34:21.377Z,15.86
2023-03-18T18:36:50.562Z,15.82
2023-03-18T18:39:18.188Z,15.79
2023-03-18T18:41:46.261Z,15.73
2023-03-18T18:44:13.796Z,15.68
2023-03-18T18:46:41.504Z,15.64
2023-03-18T18:49:24.172Z,15.61
2023-03-18T18:51:54.630Z,15.57
2023-03-18T18:54:23.437Z,15.54
2023-03-18T18:56:52.072Z,15.48
2023-03-18T18:59:25.999Z,15.45
2023-03-18T19:01:55.296Z,15.42
2023-03-18T19:04:22.693Z,15.39
2023-03-18T19:06:52.227Z,15.35
2023-03-18T19:09:25.869Z,15.31
2023-03-18T19:11:56.128Z,15.31
2023-03-18T19:14:27.183Z,15.26
2023-03-18T19:16:58.505Z,15.26
2023-03-18T19:19:30.900Z,15.23
2023-03-18T19:21:58.764Z,15.24
2023-03-18T19:24:29.643Z,15.21
2023-03-18T19:26:59.073Z,15.16
2023-03-18T19:29:27.249Z,15.14
2023-03-18T19:31:54.534Z,15.11
2023-03-18T19:34:23.392Z,15.10
2023-03-18T19:36:54.541Z,15.07
2023-03-18T19:39:22.627Z,15.05
2023-03-18T19:41:51.258Z,15.04
2023-03-18T19:44:25.424Z,15.02
2023-03-18T19:46:56.212Z,15.03
2023-03-18T19:49:32.669Z,14.99
2023-03-18T19:51:59.801Z,14.96
2023-03-18T19:54:36.666Z,14.93
2023-03-18T19:57:12.204Z,14.89
2023-03-18T19:59:40.053Z,14.88
2023-03-18T20:02:27.745Z,14.85
2023-03-18T20:04:58.147Z,14.87
2023-03-18T20:07:28.470Z,14.84
2023-03-18T20:09:56.016Z,14.84
2023-03-18T20:12:36.394Z,14.84
2023-03-18T20:15:05.634Z,14.85
2023-03-18T20:17:42.087Z,14.84
2023-03-18T20:20:15.863Z,14.86
2023-03-18T20:23:04.689Z,14.84
2023-03-18T20:25:34.577Z,14.84
2023-03-18T20:28:04.478Z,14.86
2023-03-18T20:30:38.785Z,14.83
2023-03-18T20:33:07.212Z,14.81
2023-03-18T20:35:41.321Z,14.81
2023-03-18T20:38:47.995Z,14.78
2023-03-18T20:41:19.818Z,14.78
2023-03-18T20:43:50.143Z,14.78
2023-03-18T20:46:18.060Z,14.77
2023-03-18T20:48:45.649Z,14.78
2023-03-18T20:51:32.060Z,14.75
2023-03-18T20:54:00.623Z,14.75
2023-03-18T20:56:32.300Z,14.74
2023-03-18T20:58:59.615Z,14.72
2023-03-18T21:01:27.531Z,14.69
2023-03-18T21:03:55.822Z,14.69
2023-03-18T21:06:23.114Z,14.69
2023-03-18T21:08:50.211Z,14.70
2023-03-18T21:11:27.044Z,14.71
2023-03-18T21:13:54.028Z,14.73
2023-03-18T21:16:21.437Z,14.72
2023-03-18T21:18:49.775Z,14.73
2023-03-18T21:21:38.178Z,14.73
2023-03-18T21:24:35.692Z,14.74
2023-03-18T21:27:05.079Z,14.75
2023-03-18T21:29:33.569Z,14.75
2023-03-18T21:32:00.878Z,14.74
2023-03-18T21:34:27.833Z,14.70
2023-03-18T21:36:54.823Z,14.70
2023-03-18T21:39:21.967Z,14.67
2023-03-18T21:41:48.913Z,14.64
2023-03-18T21:44:16.068Z,14.61
2023-03-18T21:46:43.141Z,14.58
2023-03-18T21:49:10.395Z,14.56
2023-03-18T21:51:40.173Z,14.53
2023-03-18T21:54:17.963Z,14.50
2023-03-18T21:56:44.911Z,14.47
2023-03-18T21:59:11.843Z,14.45
2023-03-18T22:01:38.913Z,14.44
2023-03-18T22:04:06.194Z,14.39
2023-03-18T22:06:33.943Z,14.37
2023-03-18T22:09:00.933Z,14.36
2023-03-18T22:11:27.975Z,14.32
2023-03-18T22:13:55.223Z,14.30
2023-03-18T22:16:22.492Z,14.29
2023-03-18T22:18:49.485Z,14.26
2023-03-18T22:21:28.308Z,14.24
2023-03-18T22:23:57.892Z,14.24
2023-03-18T22:26:24.922Z,14.20
2023-03-18T22:28:52.012Z,14.18
2023-03-18T22:31:25.696Z,14.17
2023-03-18T22:33:54.363Z,14.17
2023-03-18T22:36:22.656Z,14.18
2023-03-18T22:38:50.145Z,14.16
2023-03-18T22:41:30.260Z,14.15
2023-03-18T22:43:59.990Z,14.13
2023-03-18T22:46:28.384Z,14.12
2023-03-18T22:48:55.901Z,14.11
2023-03-18T22:51:28.241Z,14.12
2023-03-18T22:53:55.701Z,14.09
2023-03-18T22:56:23.445Z,14.08
2023-03-18T22:58:51.134Z,14.05
2023-03-18T23:01:22.936Z,14.02
2023-03-18T23:03:50.377Z,13.97
2023-03-18T23:06:23.552Z,13.95
2023-03-18T23:08:50.582Z,13.90
2023-03-18T23:11:17.998Z,13.88
2023-03-18T23:13:52.358Z,13.85
2023-03-18T23:16:23.206Z,13.81
2023-03-18T23:18:51.275Z,13.81
2023-03-18T23:21:24.723Z,13.81
2023-03-18T23:23:52.434Z,13.79
2023-03-18T23:26:20.492Z,13.75
2023-03-18T23:28:48.943Z,13.71
2023-03-18T23:31:17.122Z,13.70
2023-03-18T23:33:44.625Z,13.72
2023-03-18T23:36:11.717Z,13.72
2023-03-18T23:38:38.856Z,13.68
2023-03-18T23:41:07.273Z,13.65
2023-03-18T23:43:34.261Z,13.62
2023-03-18T23:46:02.162Z,13.61
2023-03-18T23:48:29.474Z,13.62
2023-03-18T23:50:56.550Z,13.65
2023-03-18T23:53:23.560Z,13.65
2023-03-18T23:55:50.904Z,13.64
2023-03-18T23:58:17.901Z,13.59
